createdAt,value
2023-04-19T00:00:04.777Z,95.34
2023-04-19T00:01:05.377Z,95.03
2023-04-19T00:02:04.855Z,94.93
2023-04-19T00:03:04.964Z,94.73
2023-04-19T00:04:06.545Z,94.21
2023-04-19T00:05:05.143Z,93.90
2023-04-19T00:06:04.751Z,94.17
2023-04-19T00:07:04.733Z,94.17
2023-04-19T00:08:04.728Z,93.96
2023-04-19T00:09:04.712Z,94.48
2023-04-19T00:10:04.720Z,93.76
2023-04-19T00:11:04.712Z,93.25
2023-04-19T00:12:04.689Z,93.29
2023-04-19T00:13:04.695Z,92.83
2023-04-19T00:14:04.665Z,93.39
2023-04-19T00:15:04.652Z,93.15
2023-04-19T00:16:04.660Z,93.55
2023-04-19T00:17:04.754Z,93.25
2023-04-19T00:18:04.680Z,92.74
2023-04-19T00:19:04.652Z,92.83
2023-04-19T00:20:04.636Z,92.88
2023-04-19T00:21:06.468Z,92.88
2023-04-19T00:22:54.169Z,92.88
2023-04-19T00:23:54.179Z,92.63
2023-04-19T00:24:54.151Z,93.39
2023-04-19T00:25:54.097Z,93.29
2023-04-19T00:26:54.101Z,93.29
2023-04-19T00:27:54.081Z,92.94
2023-04-19T00:28:54.086Z,93.35
2023-04-19T00:29:54.075Z,93.15
2023-04-19T00:30:54.106Z,93.15
2023-04-19T00:31:55.170Z,93.25
2023-04-19T00:32:55.156Z,93.45
2023-04-19T00:33:55.128Z,92.83
2023-04-19T00:34:56.985Z,93.04
2023-04-19T00:35:55.125Z,92.63
2023-04-19T00:36:55.248Z,92.83
2023-04-19T00:37:55.265Z,92.43
2023-04-19T00:38:55.123Z,92.94
2023-04-19T00:39:55.089Z,92.74
2023-04-19T00:40:55.076Z,92.74
2023-04-19T00:41:55.071Z,92.83
2023-04-19T00:42:55.057Z,92.74
2023-04-19T00:43:56.580Z,92.94
2023-04-19T00:44:55.069Z,92.43
2023-04-19T00:45:55.070Z,92.63
2023-04-19T00:46:55.026Z,92.63
2023-04-19T00:47:55.061Z,92.83
2023-04-19T00:48:55.014Z,92.74
2023-04-19T00:49:55.147Z,92.63
2023-04-19T00:50:54.995Z,92.63
2023-04-19T00:51:55.028Z,92.83
2023-04-19T00:52:57.575Z,92.53
2023-04-19T00:53:54.973Z,92.94
2023-04-19T00:54:54.980Z,92.53
2023-04-19T00:55:54.963Z,93.35
2023-04-19T00:56:54.957Z,92.83
2023-04-19T00:57:54.958Z,93.25
2023-04-19T00:58:54.943Z,93.15
2023-04-19T00:59:54.935Z,93.25
2023-04-19T01:00:56.568Z,93.15
2023-04-19T01:01:54.938Z,93.66
2023-04-19T01:02:55.073Z,93.70
2023-04-19T01:03:54.952Z,93.76
2023-04-19T01:04:54.906Z,93.45
2023-04-19T01:05:54.948Z,93.04
2023-04-19T01:06:54.873Z,93.35
2023-04-19T01:07:55.161Z,92.74
2023-04-19T01:08:54.858Z,92.63
2023-04-19T01:09:54.850Z,92.94
2023-04-19T01:10:54.861Z,93.15
2023-04-19T01:11:54.842Z,92.74
2023-04-19T01:12:54.828Z,92.74
2023-04-19T01:13:54.807Z,92.74
2023-04-19T01:14:54.816Z,93.04
2023-04-19T01:15:54.853Z,92.83
2023-04-19T01:16:54.800Z,92.74
2023-04-19T01:17:54.837Z,92.90
2023-04-19T01:18:55.599Z,92.90
2023-04-19T01:19:54.769Z,92.83
2023-04-19T01:20:54.746Z,93.10
2023-04-19T01:21:54.797Z,92.02
2023-04-19T01:22:54.754Z,92.22
2023-04-19T01:23:54.736Z,93.35
2023-04-19T01:24:54.735Z,93.25
2023-04-19T01:25:54.734Z,92.28
2023-04-19T01:26:54.729Z,92.28
2023-04-19T01:27:54.728Z,92.32
2023-04-19T01:28:54.721Z,92.12
2023-04-19T01:29:54.856Z,92.53
2023-04-19T01:30:54.732Z,92.83
2023-04-19T01:31:54.666Z,92.43
2023-04-19T01:32:54.672Z,92.53
2023-04-19T01:33:54.653Z,92.74
2023-04-19T01:34:54.635Z,92.12
2023-04-19T01:35:54.644Z,92.12
2023-04-19T01:36:54.641Z,92.12
2023-04-19T01:37:54.638Z,92.43
2023-04-19T01:38:54.606Z,92.53
2023-04-19T01:39:55.496Z,92.43
2023-04-19T01:40:55.489Z,92.32
2023-04-19T01:41:54.613Z,92.53
2023-04-19T01:42:54.581Z,92.43
2023-04-19T01:43:54.573Z,92.22
2023-04-19T01:44:54.565Z,92.53
2023-04-19T01:45:54.551Z,92.22
2023-04-19T01:46:55.533Z,92.74
2023-04-19T01:47:54.580Z,92.32
2023-04-19T01:48:54.546Z,92.74
2023-04-19T01:49:55.564Z,93.15
2023-04-19T01:50:54.535Z,92.43
2023-04-19T01:51:54.525Z,92.12
2023-04-19T01:52:54.518Z,92.32
2023-04-19T01:53:54.504Z,92.02
2023-04-19T01:54:54.497Z,92.02
2023-04-19T01:55:54.489Z,92.16
2023-04-19T01:56:54.480Z,92.63
2023-04-19T01:57:54.669Z,92.32
2023-04-19T01:58:55.463Z,92.27
2023-04-19T01:59:54.456Z,92.83
2023-04-19T02:00:54.503Z,92.22
2023-04-19T02:01:54.465Z,92.53
2023-04-19T02:02:54.522Z,92.74
2023-04-19T02:03:54.589Z,92.57
2023-04-19T02:04:55.406Z,92.83
2023-04-19T02:05:54.412Z,93.29
2023-04-19T02:06:54.417Z,93.04
2023-04-19T02:07:54.402Z,93.15
2023-04-19T02:08:54.377Z,93.19
2023-04-19T02:09:54.382Z,92.83
2023-04-19T02:10:54.382Z,92.32
2023-04-19T02:11:54.360Z,93.04
2023-04-19T02:12:54.355Z,92.43
2023-04-19T02:13:54.342Z,92.12
2023-04-19T02:14:54.344Z,92.53
2023-04-19T02:15:54.410Z,93.04
2023-04-19T02:16:54.408Z,93.15
2023-04-19T02:17:54.345Z,92.02
2023-04-19T02:18:54.340Z,92.27
2023-04-19T02:19:54.297Z,92.47
2023-04-19T02:20:54.287Z,92.47
2023-04-19T02:21:54.280Z,92.36
2023-04-19T02:22:54.271Z,91.65
2023-04-19T02:23:54.263Z,92.31
2023-04-19T02:24:54.269Z,92.16
2023-04-19T02:25:54.259Z,92.16
2023-04-19T02:26:54.247Z,92.47
2023-04-19T02:27:54.232Z,91.38
2023-04-19T02:28:54.217Z,91.44
2023-04-19T02:29:54.215Z,91.44
2023-04-19T02:30:54.230Z,91.24
2023-04-19T02:31:54.258Z,91.90
2023-04-19T02:32:54.220Z,91.14
2023-04-19T02:33:54.220Z,91.44
2023-04-19T02:34:54.177Z,91.35
2023-04-19T02:35:54.156Z,91.55
2023-04-19T02:36:54.160Z,91.14
2023-04-19T02:37:55.014Z,90.46
2023-04-19T02:38:54.156Z,90.62
2023-04-19T02:39:54.141Z,90.46
2023-04-19T02:40:54.135Z,90.87
2023-04-19T02:41:54.117Z,90.87
2023-04-19T02:42:54.126Z,90.16
2023-04-19T02:43:54.128Z,90.32
2023-04-19T02:44:54.125Z,89.84
2023-04-19T02:45:55.116Z,87.90
2023-04-19T02:46:54.097Z,88.21
2023-04-19T02:47:54.094Z,87.08
2023-04-19T02:48:54.057Z,85.95
2023-04-19T02:49:54.051Z,84.52
2023-04-19T02:50:54.051Z,84.82
2023-04-19T02:51:54.031Z,84.82
2023-04-19T02:52:54.031Z,84.20
2023-04-19T02:53:54.010Z,83.59
2023-04-19T02:54:54.011Z,84.10
2023-04-19T02:55:54.003Z,83.49
2023-04-19T02:56:54.001Z,84.10
2023-04-19T02:57:53.989Z,83.49
2023-04-19T02:58:53.971Z,82.87
2023-04-19T02:59:53.982Z,81.74
2023-04-19T03:00:54.657Z,82.05
2023-04-19T03:01:53.953Z,82.26
2023-04-19T03:02:54.081Z,81.02
2023-04-19T03:03:53.995Z,81.13
2023-04-19T03:04:53.933Z,80.62
2023-04-19T03:05:53.930Z,80.62
2023-04-19T03:06:53.950Z,80.62
2023-04-19T03:07:53.897Z,79.69
2023-04-19T03:08:53.909Z,79.69
2023-04-19T03:09:53.892Z,80.10
2023-04-19T03:10:53.868Z,80.00
2023-04-19T03:11:54.517Z,80.62
2023-04-19T03:12:53.872Z,80.51
2023-04-19T03:13:53.857Z,80.31
2023-04-19T03:14:53.866Z,79.59
2023-04-19T03:15:53.866Z,79.80
2023-04-19T03:16:53.829Z,80.24
2023-04-19T03:17:53.895Z,80.96
2023-04-19T03:18:53.822Z,80.72
2023-04-19T03:19:53.795Z,80.76
2023-04-19T03:20:53.800Z,80.92
2023-04-19T03:21:53.806Z,80.86
2023-04-19T03:22:53.780Z,80.04
2023-04-19T03:23:53.791Z,80.86
2023-04-19T03:24:53.769Z,80.92
2023-04-19T03:25:54.516Z,80.92
2023-04-19T03:26:53.750Z,80.14
2023-04-19T03:27:53.734Z,80.65
2023-04-19T03:28:53.765Z,80.51
2023-04-19T03:29:53.837Z,80.35
2023-04-19T03:30:53.753Z,79.83
2023-04-19T03:31:54.529Z,80.24
2023-04-19T03:32:53.711Z,80.55
2023-04-19T03:33:53.699Z,80.86
2023-04-19T03:34:53.676Z,80.65
2023-04-19T03:35:53.653Z,80.65
2023-04-19T03:36:53.667Z,80.76
2023-04-19T03:37:54.517Z,80.35
2023-04-19T03:38:53.656Z,80.45
2023-04-19T03:39:53.630Z,79.93
2023-04-19T03:40:53.614Z,79.93
2023-04-19T03:41:53.624Z,79.83
2023-04-19T03:42:53.621Z,80.24
2023-04-19T03:43:53.606Z,79.93
2023-04-19T03:44:53.604Z,79.59
2023-04-19T03:45:53.603Z,79.42
2023-04-19T03:46:53.567Z,79.49
2023-04-19T03:47:53.618Z,80.35
2023-04-19T03:48:53.562Z,79.83
2023-04-19T03:49:53.578Z,79.52
2023-04-19T03:50:53.547Z,79.63
2023-04-19T03:51:53.551Z,79.22
2023-04-19T03:52:53.533Z,79.32
2023-04-19T03:53:53.547Z,79.93
2023-04-19T03:54:53.520Z,80.04
2023-04-19T03:55:53.528Z,79.63
2023-04-19T03:56:53.526Z,78.91
2023-04-19T03:57:53.492Z,79.22
2023-04-19T03:58:54.014Z,78.81
2023-04-19T03:59:53.502Z,78.50
2023-04-19T04:00:53.470Z,78.50
2023-04-19T04:01:53.478Z,78.81
2023-04-19T04:02:53.646Z,78.09
2023-04-19T04:03:54.267Z,78.81
2023-04-19T04:04:53.609Z,78.09
2023-04-19T04:05:53.440Z,78.81
2023-04-19T04:06:53.412Z,78.74
2023-04-19T04:07:53.413Z,78.12
2023-04-19T04:08:53.403Z,78.43
2023-04-19T04:09:53.385Z,78.33
2023-04-19T04:10:53.397Z,78.02
2023-04-19T04:11:53.404Z,77.92
2023-04-19T04:12:53.371Z,79.11
2023-04-19T04:13:53.352Z,78.74
2023-04-19T04:14:53.359Z,78.64
2023-04-19T04:15:53.413Z,78.64
2023-04-19T04:16:53.353Z,78.12
2023-04-19T04:17:53.434Z,77.30
2023-04-19T04:18:53.389Z,76.48
2023-04-19T04:19:53.328Z,77.00
2023-04-19T04:20:53.300Z,75.70
2023-04-19T04:21:54.015Z,75.35
2023-04-19T04:22:53.290Z,75.45
2023-04-19T04:23:53.337Z,74.94
2023-04-19T04:24:53.278Z,75.04
2023-04-19T04:25:53.259Z,74.94
2023-04-19T04:26:55.129Z,74.63
2023-04-19T04:27:53.243Z,75.04
2023-04-19T04:28:53.240Z,75.15
2023-04-19T04:29:53.233Z,75.25
2023-04-19T04:30:53.217Z,75.56
2023-04-19T04:31:53.275Z,74.94
2023-04-19T04:32:53.286Z,74.94
2023-04-19T04:33:53.336Z,75.04
2023-04-19T04:34:53.227Z,75.04
2023-04-19T04:35:53.210Z,74.74
2023-04-19T04:36:53.214Z,75.15
2023-04-19T04:37:53.211Z,74.84
2023-04-19T04:38:53.187Z,75.04
2023-04-19T04:39:53.188Z,75.70
2023-04-19T04:40:54.059Z,75.56
2023-04-19T04:41:53.233Z,75.45
2023-04-19T04:42:53.148Z,75.66
2023-04-19T04:44:08.242Z,75.35
2023-04-19T04:44:55.126Z,75.25
2023-04-19T04:45:54.151Z,75.45
2023-04-19T04:46:53.657Z,75.56
2023-04-19T04:47:53.134Z,75.18
2023-04-19T04:48:53.098Z,75.08
2023-04-19T04:49:53.217Z,74.94
2023-04-19T04:50:55.044Z,74.84
2023-04-19T04:51:53.085Z,74.12
2023-04-19T04:52:53.088Z,74.15
2023-04-19T04:53:53.109Z,73.71
2023-04-19T04:54:53.068Z,74.26
2023-04-19T04:55:53.062Z,74.57
2023-04-19T04:56:53.077Z,74.26
2023-04-19T04:57:53.052Z,74.05
2023-04-19T04:58:53.042Z,74.46
2023-04-19T04:59:53.043Z,74.57
2023-04-19T05:00:53.072Z,74.26
2023-04-19T05:01:52.992Z,74.26
2023-04-19T05:02:53.138Z,74.05
2023-04-19T05:03:53.020Z,74.36
2023-04-19T05:04:54.548Z,74.26
2023-04-19T05:05:52.982Z,74.36
2023-04-19T05:06:52.968Z,74.08
2023-04-19T05:07:52.957Z,74.26
2023-04-19T05:08:54.633Z,74.57
2023-04-19T05:09:52.951Z,74.57
2023-04-19T05:10:52.916Z,74.26
2023-04-19T05:11:53.933Z,74.15
2023-04-19T05:12:53.550Z,74.87
2023-04-19T05:13:52.906Z,74.77
2023-04-19T05:14:52.943Z,74.46
2023-04-19T05:15:54.732Z,74.26
2023-04-19T05:16:58.588Z,74.15
2023-04-19T05:17:52.901Z,74.57
2023-04-19T05:18:52.865Z,74.05
2023-04-19T05:19:53.667Z,74.36
2023-04-19T05:20:52.846Z,73.74
2023-04-19T05:21:52.870Z,73.54
2023-04-19T05:22:52.850Z,73.61
2023-04-19T05:23:52.834Z,73.50
2023-04-19T05:24:52.834Z,73.40
2023-04-19T05:25:52.813Z,72.68
2023-04-19T05:26:52.839Z,72.65
2023-04-19T05:27:53.801Z,72.55
2023-04-19T05:28:52.780Z,72.75
2023-04-19T05:29:54.557Z,72.55
2023-04-19T05:30:55.597Z,72.24
2023-04-19T05:31:52.825Z,72.31
2023-04-19T05:32:52.874Z,72.14
2023-04-19T05:33:52.773Z,72.24
2023-04-19T05:34:54.575Z,72.68
2023-04-19T05:35:52.741Z,72.68
2023-04-19T05:36:54.561Z,72.89
2023-04-19T05:37:53.729Z,73.27
2023-04-19T05:38:52.751Z,72.78
2023-04-19T05:39:52.709Z,73.19
2023-04-19T05:40:52.702Z,73.27
2023-04-19T05:41:52.688Z,73.40
2023-04-19T05:42:52.679Z,73.30
2023-04-19T05:43:52.731Z,72.89
2023-04-19T05:44:52.658Z,72.85
2023-04-19T05:45:53.591Z,72.99
2023-04-19T05:46:52.672Z,73.40
2023-04-19T05:47:53.409Z,73.19
2023-04-19T05:48:54.144Z,73.44
2023-04-19T05:49:54.146Z,73.64
2023-04-19T05:50:52.647Z,73.98
2023-04-19T05:51:55.083Z,74.15
2023-04-19T05:52:52.611Z,74.15
2023-04-19T05:53:56.655Z,74.50
2023-04-19T05:54:55.559Z,74.19
2023-04-19T05:55:55.588Z,74.08
2023-04-19T05:56:52.567Z,74.50
2023-04-19T05:57:54.202Z,74.40
2023-04-19T05:59:27.128Z,74.12
2023-04-19T05:59:52.584Z,74.33
2023-04-19T06:00:52.575Z,74.40
2023-04-19T06:01:52.526Z,74.05
2023-04-19T06:02:52.701Z,73.44
2023-04-19T06:03:52.957Z,73.74
2023-04-19T06:04:53.250Z,73.74
2023-04-19T06:05:52.522Z,72.82
2023-04-19T06:06:52.476Z,72.99
2023-04-19T06:07:55.639Z,72.58
2023-04-19T06:08:55.113Z,72.92
2023-04-19T06:09:53.542Z,73.23
2023-04-19T06:10:57.117Z,73.78
2023-04-19T06:11:54.464Z,74.40
2023-04-19T06:12:52.440Z,74.53
2023-04-19T06:13:52.697Z,74.50
2023-04-19T06:14:52.461Z,74.60
2023-04-19T06:15:52.499Z,74.84
2023-04-19T06:16:52.406Z,74.50
2023-04-19T06:17:52.412Z,74.60
2023-04-19T06:18:52.402Z,74.12
2023-04-19T06:19:52.380Z,75.04
2023-04-19T06:20:52.435Z,75.04
2023-04-19T06:21:52.478Z,75.04
2023-04-19T06:22:52.370Z,75.25
2023-04-19T06:23:52.349Z,75.04
2023-04-19T06:24:52.390Z,75.46
2023-04-19T06:25:52.353Z,75.25
2023-04-19T06:26:52.325Z,74.95
2023-04-19T06:27:52.336Z,75.04
2023-04-19T06:28:52.314Z,75.15
2023-04-19T06:29:52.348Z,74.95
2023-04-19T06:30:53.203Z,75.25
2023-04-19T06:31:52.332Z,75.04
2023-04-19T06:32:52.305Z,74.84
2023-04-19T06:33:52.267Z,75.76
2023-04-19T06:34:52.270Z,75.15
2023-04-19T06:35:52.247Z,75.25
2023-04-19T06:36:53.109Z,75.15
2023-04-19T06:37:52.275Z,75.04
2023-04-19T06:38:52.237Z,74.95
2023-04-19T06:39:52.227Z,74.53
2023-04-19T06:40:52.311Z,74.43
2023-04-19T06:41:52.231Z,74.74
2023-04-19T06:42:52.218Z,74.84
2023-04-19T06:43:52.208Z,75.08
2023-04-19T06:44:52.189Z,75.04
2023-04-19T06:45:52.209Z,75.29
2023-04-19T06:46:52.180Z,74.87
2023-04-19T06:47:53.332Z,74.29
2023-04-19T06:48:52.203Z,74.50
2023-04-19T06:49:52.158Z,74.50
2023-04-19T06:50:52.137Z,74.50
2023-04-19T06:51:52.164Z,74.50
2023-04-19T06:52:52.142Z,74.26
2023-04-19T06:53:52.693Z,74.15
2023-04-19T06:54:52.123Z,73.64
2023-04-19T06:55:52.130Z,73.64
2023-04-19T06:56:52.119Z,73.98
2023-04-19T06:57:52.120Z,73.88
2023-04-19T06:58:52.100Z,74.40
2023-04-19T06:59:53.277Z,74.05
2023-04-19T07:00:52.061Z,73.85
2023-04-19T07:01:52.757Z,73.68
2023-04-19T07:02:52.196Z,74.08
2023-04-19T07:03:53.105Z,73.81
2023-04-19T07:04:52.570Z,74.29
2023-04-19T07:05:52.063Z,74.29
2023-04-19T07:06:52.076Z,74.29
2023-04-19T07:07:52.247Z,74.60
2023-04-19T07:08:51.998Z,74.22
2023-04-19T07:09:53.005Z,73.50
2023-04-19T07:10:51.981Z,74.02
2023-04-19T07:11:51.988Z,73.68
2023-04-19T07:12:52.062Z,73.68
2023-04-19T07:13:51.953Z,73.68
2023-04-19T07:14:51.950Z,74.02
2023-04-19T07:15:51.997Z,73.98
2023-04-19T07:16:52.753Z,73.78
2023-04-19T07:17:51.993Z,73.78
2023-04-19T07:18:51.908Z,73.26
2023-04-19T07:19:51.904Z,72.96
2023-04-19T07:20:51.910Z,72.44
2023-04-19T07:21:51.907Z,72.41
2023-04-19T07:22:51.924Z,71.79
2023-04-19T07:23:52.713Z,71.89
2023-04-19T07:24:51.866Z,72.09
2023-04-19T07:25:51.904Z,71.69
2023-04-19T07:26:51.867Z,71.69
2023-04-19T07:27:52.705Z,71.41
2023-04-19T07:28:51.848Z,70.94
2023-04-19T07:29:51.828Z,71.34
2023-04-19T07:30:51.819Z,69.87
2023-04-19T07:31:51.808Z,69.77
2023-04-19T07:32:51.961Z,69.87
2023-04-19T07:33:52.610Z,70.08
2023-04-19T07:34:51.810Z,69.84
2023-04-19T07:35:51.806Z,68.16
2023-04-19T07:36:52.033Z,66.60
2023-04-19T07:37:51.766Z,66.08
2023-04-19T07:38:51.798Z,66.08
2023-04-19T07:39:51.745Z,66.22
2023-04-19T07:40:53.644Z,66.22
2023-04-19T07:41:51.896Z,66.31
2023-04-19T07:42:51.780Z,66.01
2023-04-19T07:43:51.735Z,65.70
2023-04-19T07:44:52.705Z,64.95
2023-04-19T07:45:51.726Z,64.95
2023-04-19T07:46:51.793Z,63.49
2023-04-19T07:47:53.391Z,63.79
2023-04-19T07:48:51.697Z,63.25
2023-04-19T07:49:51.675Z,62.54
2023-04-19T07:50:51.677Z,62.40
2023-04-19T07:51:51.660Z,60.66
2023-04-19T07:52:51.654Z,60.89
2023-04-19T07:53:51.634Z,59.77
2023-04-19T07:54:51.657Z,60.15
2023-04-19T07:55:51.664Z,59.84
2023-04-19T07:56:51.690Z,58.79
2023-04-19T07:57:51.623Z,58.69
2023-04-19T07:59:04.157Z,58.45
2023-04-19T07:59:53.664Z,57.33
2023-04-19T08:00:51.684Z,56.69
2023-04-19T08:01:51.632Z,55.97
2023-04-19T08:02:51.766Z,55.97
2023-04-19T08:03:51.857Z,55.77
2023-04-19T08:04:53.040Z,54.74
2023-04-19T08:05:51.675Z,54.64
2023-04-19T08:06:52.151Z,54.23
2023-04-19T08:07:51.599Z,53.23
2023-04-19T08:08:51.525Z,53.82
2023-04-19T08:09:51.538Z,52.92
2023-04-19T08:10:51.543Z,53.62
2023-04-19T08:11:51.542Z,52.59
2023-04-19T08:13:05.394Z,52.19
2023-04-19T08:14:04.650Z,52.70
2023-04-19T08:15:02.644Z,52.49
2023-04-19T08:17:52.518Z,52.70
2023-04-19T08:18:51.495Z,53.11
2023-04-19T08:19:51.456Z,51.37
2023-04-19T08:20:51.433Z,51.78
2023-04-19T08:21:51.450Z,52.16
2023-04-19T08:22:51.453Z,49.63
2023-04-19T08:23:53.570Z,49.63
2023-04-19T08:24:52.404Z,49.65
2023-04-19T08:25:51.470Z,50.18
2023-04-19T08:26:51.393Z,50.39
2023-04-19T08:27:51.374Z,50.80
2023-04-19T08:28:51.366Z,51.08
2023-04-19T08:29:51.404Z,50.37
2023-04-19T08:30:52.221Z,48.91
2023-04-19T08:31:51.417Z,50.37
2023-04-19T08:32:51.400Z,50.98
2023-04-19T08:33:51.407Z,51.08
2023-04-19T08:34:51.325Z,49.85
2023-04-19T08:35:51.329Z,49.77
2023-04-19T08:37:03.508Z,49.98
2023-04-19T08:37:53.323Z,51.50
2023-04-19T08:39:04.164Z,49.34
2023-04-19T08:39:53.291Z,49.98
2023-04-19T08:40:51.281Z,49.16
2023-04-19T08:42:02.717Z,49.34
2023-04-19T08:42:54.153Z,49.55
2023-04-19T08:43:52.150Z,48.22
2023-04-19T08:45:09.447Z,48.52
2023-04-19T08:45:53.289Z,48.73
2023-04-19T08:46:51.255Z,48.01
2023-04-19T08:48:00.711Z,48.93
2023-04-19T08:48:53.462Z,49.04
2023-04-19T08:50:03.757Z,49.34
2023-04-19T08:51:52.185Z,46.19
2023-04-19T08:52:58.841Z,45.06
2023-04-19T08:53:53.181Z,45.98
2023-04-19T08:54:51.170Z,44.65
2023-04-19T08:56:08.577Z,44.65
2023-04-19T08:56:53.156Z,45.17
2023-04-19T08:57:51.148Z,45.57
2023-04-19T08:59:52.131Z,46.91
2023-04-19T09:00:51.106Z,46.60
2023-04-19T09:01:51.128Z,46.70
2023-04-19T09:02:51.281Z,47.81
2023-04-19T09:04:02.283Z,48.73
2023-04-19T09:04:53.791Z,49.65
2023-04-19T09:05:52.359Z,49.57
2023-04-19T09:06:51.816Z,49.88
2023-04-19T09:07:52.140Z,49.98
2023-04-19T09:08:52.651Z,49.65
2023-04-19T09:10:02.000Z,49.98
2023-04-19T09:10:53.169Z,50.39
2023-04-19T09:11:51.055Z,50.37
2023-04-19T09:12:51.038Z,49.65
2023-04-19T09:13:52.936Z,49.39
2023-04-19T09:15:01.323Z,50.01
2023-04-19T09:15:55.737Z,49.80
2023-04-19T09:16:51.011Z,49.80
2023-04-19T09:17:51.714Z,50.01
2023-04-19T09:18:59.811Z,49.69
2023-04-19T09:19:52.999Z,49.57
2023-04-19T09:20:51.005Z,49.18
2023-04-19T09:21:50.955Z,49.69
2023-04-19T09:22:51.766Z,48.98
2023-04-19T09:23:51.800Z,50.01
2023-04-19T09:26:15.099Z,49.67
2023-04-19T09:26:52.931Z,49.57
2023-04-19T09:27:50.911Z,49.77
2023-04-19T09:28:50.901Z,49.57
2023-04-19T09:29:54.664Z,49.26
2023-04-19T09:31:06.721Z,49.67
2023-04-19T09:31:54.916Z,48.44
2023-04-19T09:32:51.045Z,48.96
2023-04-19T09:33:52.107Z,49.06
2023-04-19T09:34:50.856Z,48.75
2023-04-19T09:35:53.729Z,48.24
2023-04-19T09:37:00.567Z,48.14
2023-04-19T09:38:04.760Z,46.81
2023-04-19T09:38:54.647Z,47.11
2023-04-19T09:39:52.649Z,46.91
2023-04-19T09:40:50.796Z,47.83
2023-04-19T09:41:52.750Z,46.91
2023-04-19T09:45:25.390Z,46.60
2023-04-19T09:45:52.781Z,47.93
2023-04-19T09:46:52.446Z,47.19
2023-04-19T09:47:51.773Z,45.25
2023-04-19T09:48:50.740Z,43.91
2023-04-19T09:49:51.010Z,44.23
2023-04-19T09:50:57.486Z,44.12
2023-04-19T09:51:52.733Z,44.02
2023-04-19T09:52:51.655Z,43.71
2023-04-19T09:53:50.688Z,43.49
2023-04-19T09:54:50.671Z,43.71
2023-04-19T09:56:00.664Z,43.61
2023-04-19T09:56:56.156Z,42.90
2023-04-19T09:57:51.666Z,42.79
2023-04-19T09:58:58.656Z,42.90
2023-04-19T09:59:52.642Z,42.26
2023-04-19T10:00:55.028Z,41.54
2023-04-19T10:01:52.687Z,41.34
2023-04-19T10:02:52.051Z,42.48
2023-04-19T10:03:52.754Z,43.61
2023-04-19T10:05:53.284Z,42.97
2023-04-19T10:07:10.148Z,40.70
2023-04-19T10:07:54.186Z,39.09
2023-04-19T10:08:50.609Z,39.09
2023-04-19T10:09:54.291Z,40.52
2023-04-19T10:10:51.577Z,40.74
2023-04-19T10:11:52.237Z,40.72
2023-04-19T10:13:51.542Z,41.34
2023-04-19T10:14:50.582Z,41.75
2023-04-19T10:15:54.080Z,41.03
2023-04-19T10:16:54.383Z,42.26
2023-04-19T10:17:50.548Z,42.24
2023-04-19T10:18:50.765Z,42.55
2023-04-19T10:19:52.238Z,42.03
2023-04-19T10:20:50.488Z,42.12
2023-04-19T10:21:50.474Z,39.97
2023-04-19T10:22:50.463Z,40.28
2023-04-19T10:23:50.469Z,40.99
2023-04-19T10:24:50.456Z,40.99
2023-04-19T10:25:50.464Z,42.75
2023-04-19T10:26:50.444Z,43.77
2023-04-19T10:27:50.424Z,43.47
2023-04-19T10:28:50.457Z,44.29
2023-04-19T10:29:50.407Z,43.98
2023-04-19T10:30:50.423Z,44.29
2023-04-19T10:31:50.432Z,43.26
2023-04-19T10:32:50.440Z,44.90
2023-04-19T10:33:50.393Z,44.78
2023-04-19T10:34:50.409Z,44.88
2023-04-19T10:35:50.387Z,44.06
2023-04-19T10:36:50.358Z,41.59
2023-04-19T10:37:50.349Z,40.26
2023-04-19T10:38:50.426Z,40.56
2023-04-19T10:39:51.165Z,40.48
2023-04-19T10:40:50.324Z,41.38
2023-04-19T10:41:50.344Z,40.36
2023-04-19T10:42:50.307Z,39.95
2023-04-19T10:43:50.297Z,40.67
2023-04-19T10:44:50.291Z,40.67
2023-04-19T10:45:51.198Z,40.46
2023-04-19T10:46:50.284Z,40.55
2023-04-19T10:47:50.292Z,40.87
2023-04-19T10:48:50.253Z,40.55
2023-04-19T10:49:50.252Z,40.44
2023-04-19T10:50:52.748Z,39.94
2023-04-19T10:51:50.238Z,38.81
2023-04-19T10:52:50.259Z,38.71
2023-04-19T10:53:50.229Z,38.11
2023-04-19T10:54:50.592Z,38.83
2023-04-19T10:55:50.209Z,38.52
2023-04-19T10:56:50.229Z,39.54
2023-04-19T10:57:51.741Z,39.53
2023-04-19T10:58:50.186Z,39.32
2023-04-19T10:59:51.170Z,38.20
2023-04-19T11:00:50.182Z,38.83
2023-04-19T11:01:50.284Z,39.01
2023-04-19T11:02:50.271Z,38.01
2023-04-19T11:03:50.218Z,38.93
2023-04-19T11:04:50.150Z,39.32
2023-04-19T11:05:50.133Z,38.60
2023-04-19T11:06:51.759Z,37.89
2023-04-19T11:07:54.752Z,37.48
2023-04-19T11:08:51.670Z,37.48
2023-04-19T11:09:50.095Z,38.09
2023-04-19T11:10:51.245Z,38.18
2023-04-19T11:11:50.088Z,38.59
2023-04-19T11:12:50.074Z,39.20
2023-04-19T11:13:50.057Z,39.10
2023-04-19T11:14:50.062Z,39.32
2023-04-19T11:15:50.113Z,38.81
2023-04-19T11:16:50.075Z,40.14
2023-04-19T11:18:01.010Z,40.44
2023-04-19T11:18:52.761Z,40.12
2023-04-19T11:19:50.005Z,39.20
2023-04-19T11:20:50.041Z,38.81
2023-04-19T11:21:49.991Z,39.73
2023-04-19T11:22:50.050Z,40.14
2023-04-19T11:23:49.989Z,40.53
2023-04-19T11:24:50.025Z,39.51
2023-04-19T11:25:49.965Z,39.42
2023-04-19T11:26:49.975Z,39.94
2023-04-19T11:27:50.023Z,39.81
2023-04-19T11:28:49.936Z,39.14
2023-04-19T11:29:50.979Z,39.73
2023-04-19T11:30:49.922Z,39.24
2023-04-19T11:31:51.804Z,38.81
2023-04-19T11:32:51.504Z,39.73
2023-04-19T11:33:49.908Z,39.12
2023-04-19T11:34:49.896Z,38.69
2023-04-19T11:35:49.885Z,39.20
2023-04-19T11:36:51.674Z,38.08
2023-04-19T11:37:49.893Z,38.39
2023-04-19T11:38:57.745Z,38.48
2023-04-19T11:39:52.500Z,39.12
2023-04-19T11:40:50.844Z,39.42
2023-04-19T11:41:50.641Z,39.92
2023-04-19T11:42:50.856Z,39.81
2023-04-19T11:43:49.836Z,39.20
2023-04-19T11:44:49.825Z,38.79
2023-04-19T11:45:49.819Z,38.48
2023-04-19T11:46:49.851Z,39.00
2023-04-19T11:47:49.907Z,38.69
2023-04-19T11:48:49.793Z,38.69
2023-04-19T11:49:49.808Z,39.61
2023-04-19T11:50:49.769Z,38.37
2023-04-19T11:51:49.782Z,38.78
2023-04-19T11:52:49.771Z,38.98
2023-04-19T11:53:49.798Z,38.37
2023-04-19T11:54:49.744Z,39.28
2023-04-19T11:55:49.750Z,39.49
2023-04-19T11:56:49.739Z,38.79
2023-04-19T11:57:50.708Z,39.59
2023-04-19T11:58:49.753Z,39.79
2023-04-19T11:59:49.702Z,39.57
2023-04-19T12:00:49.704Z,39.06
2023-04-19T12:01:49.719Z,39.90
2023-04-19T12:02:49.852Z,39.49
2023-04-19T12:03:49.934Z,40.51
2023-04-19T12:04:49.778Z,40.92
2023-04-19T12:05:51.294Z,39.47
2023-04-19T12:06:50.183Z,39.17
2023-04-19T12:07:49.652Z,39.49
2023-04-19T12:08:49.648Z,39.26
2023-04-19T12:09:49.664Z,40.51
2023-04-19T12:10:49.613Z,40.51
2023-04-19T12:11:49.613Z,40.08
2023-04-19T12:12:49.598Z,40.49
2023-04-19T12:13:49.594Z,39.98
2023-04-19T12:14:49.580Z,40.30
2023-04-19T12:15:49.584Z,41.20
2023-04-19T12:16:49.630Z,40.49
2023-04-19T12:17:56.898Z,40.28
2023-04-19T12:18:52.196Z,40.08
2023-04-19T12:19:49.543Z,39.87
2023-04-19T12:20:53.180Z,40.08
2023-04-19T12:21:49.597Z,41.30
2023-04-19T12:22:49.533Z,41.80
2023-04-19T12:23:49.541Z,41.28
2023-04-19T12:24:49.494Z,41.39
2023-04-19T12:25:50.506Z,40.98
2023-04-19T12:26:49.500Z,41.82
2023-04-19T12:27:49.497Z,42.22
2023-04-19T12:28:49.466Z,42.63
2023-04-19T12:29:49.479Z,42.33
2023-04-19T12:30:49.478Z,42.63
2023-04-19T12:31:49.543Z,42.33
2023-04-19T12:32:49.481Z,42.10
2023-04-19T12:33:49.435Z,42.21
2023-04-19T12:34:49.429Z,41.35
2023-04-19T12:35:49.423Z,41.78
2023-04-19T12:36:49.420Z,41.06
2023-04-19T12:37:49.422Z,41.49
2023-04-19T12:38:49.403Z,41.08
2023-04-19T12:39:49.383Z,41.92
2023-04-19T12:40:49.378Z,41.49
2023-04-19T12:41:49.374Z,40.88
2023-04-19T12:42:49.378Z,40.17
2023-04-19T12:43:49.357Z,40.59
2023-04-19T12:44:49.354Z,40.57
2023-04-19T12:45:49.356Z,40.37
2023-04-19T12:46:50.284Z,40.08
2023-04-19T12:47:49.371Z,40.37
2023-04-19T12:48:49.320Z,40.57
2023-04-19T12:49:49.339Z,39.57
2023-04-19T12:50:49.305Z,39.47
2023-04-19T12:51:49.330Z,39.37
2023-04-19T12:52:51.277Z,38.96
2023-04-19T12:53:49.264Z,39.06
2023-04-19T12:54:50.695Z,38.43
2023-04-19T12:55:50.198Z,39.45
2023-04-19T12:56:49.261Z,39.06
2023-04-19T12:57:49.265Z,38.94
2023-04-19T12:58:49.272Z,39.45
2023-04-19T12:59:49.245Z,39.45
2023-04-19T13:00:49.252Z,39.86
2023-04-19T13:01:50.518Z,38.94